sensor_id;sensor_type;location;lat;lon;timestamp;pressure;altitude;pressure_sealevel;temperature;humidity
804;BME280;25687;49.976;8.240;2022-09-02T00:01:53;100196.41;;;16.88;59.18
804;BME280;25687;49.976;8.240;2022-09-02T00:04:21;100196.31;;;16.89;59.25
804;BME280;25687;49.976;8.240;2022-09-02T00:06:48;100193.28;;;16.96;58.64
804;BME280;25687;49.976;8.240;2022-09-02T00:09:17;100185.34;;;16.86;59.62
804;BME280;25687;49.976;8.240;2022-09-02T00:11:44;100187.50;;;16.92;59.17
804;BME280;25687;49.976;8.240;2022-09-02T00:14:13;100188.41;;;16.91;59.62
804;BME280;25687;49.976;8.240;2022-09-02T00:16:40;100183.91;;;16.82;59.55
804;BME280;25687;49.976;8.240;2022-09-02T00:19:21;100187.94;;;16.86;59.21
804;BME280;25687;49.976;8.240;2022-09-02T00:21:49;100184.75;;;16.93;59.35
804;BME280;25687;49.976;8.240;2022-09-02T00:24:15;100178.34;;;16.98;59.46
804;BME280;25687;49.976;8.240;2022-09-02T00:26:41;100181.22;;;16.94;59.65
804;BME280;25687;49.976;8.240;2022-09-02T00:29:07;100183.34;;;16.89;59.64
804;BME280;25687;49.976;8.240;2022-09-02T00:31:32;100180.16;;;16.86;59.70
804;BME280;25687;49.976;8.240;2022-09-02T00:33:58;100181.44;;;16.91;59.36
804;BME280;25687;49.976;8.240;2022-09-02T00:36:25;100173.53;;;16.93;59.63
804;BME280;25687;49.976;8.240;2022-09-02T00:38:51;100172.09;;;16.89;59.56
804;BME280;25687;49.976;8.240;2022-09-02T00:41:19;100170.94;;;16.82;60.17
804;BME280;25687;49.976;8.240;2022-09-02T00:43:49;100172.00;;;16.79;60.21
804;BME280;25687;49.976;8.240;2022-09-02T00:46:21;100172.00;;;16.79;59.90
804;BME280;25687;49.976;8.240;2022-09-02T00:48:52;100177.47;;;16.76;60.29
804;BME280;25687;49.976;8.240;2022-09-02T00:51:20;100171.28;;;16.88;60.11
804;BME280;25687;49.976;8.240;2022-09-02T00:53:47;100172.47;;;16.84;60.00
804;BME280;25687;49.976;8.240;2022-09-02T00:56:21;100168.22;;;16.83;60.23
804;BME280;25687;49.976;8.240;2022-09-02T00:58:49;100169.66;;;16.76;60.78
804;BME280;25687;49.976;8.240;2022-09-02T01:01:16;100163.16;;;16.70;60.96
804;BME280;25687;49.976;8.240;2022-09-02T01:03:42;100165.78;;;16.70;61.08
804;BME280;25687;49.976;8.240;2022-09-02T01:06:10;100157.16;;;16.70;61.46
804;BME280;25687;49.976;8.240;2022-09-02T01:08:43;100166.72;;;16.69;61.53
804;BME280;25687;49.976;8.240;2022-09-02T01:11:10;100162.94;;;16.62;61.19
804;BME280;25687;49.976;8.240;2022-09-02T01:13:40;100163.78;;;16.62;61.35
804;BME280;25687;49.976;8.240;2022-09-02T01:16:20;100158.84;;;16.48;62.33
804;BME280;25687;49.976;8.240;2022-09-02T01:18:51;100160.28;;;16.41;62.47
804;BME280;25687;49.976;8.240;2022-09-02T01:21:18;100159.09;;;16.45;63.00
804;BME280;25687;49.976;8.240;2022-09-02T01:23:45;100161.09;;;16.53;63.04
804;BME280;25687;49.976;8.240;2022-09-02T01:26:11;100154.59;;;16.47;62.78
804;BME280;25687;49.976;8.240;2022-09-02T01:28:36;100164.28;;;16.45;63.25
804;BME280;25687;49.976;8.240;2022-09-02T01:31:02;100160.19;;;16.31;63.79
804;BME280;25687;49.976;8.240;2022-09-02T01:33:28;100161.59;;;16.24;64.45
804;BME280;25687;49.976;8.240;2022-09-02T01:35:54;100159.97;;;16.11;64.67
804;BME280;25687;49.976;8.240;2022-09-02T01:38:20;100163.72;;;16.07;65.17
804;BME280;25687;49.976;8.240;2022-09-02T01:40:46;100161.59;;;16.01;65.04
804;BME280;25687;49.976;8.240;2022-09-02T01:43:15;100161.03;;;16.09;65.65
804;BME280;25687;49.976;8.240;2022-09-02T01:45:44;100160.44;;;16.05;64.92
804;BME280;25687;49.976;8.240;2022-09-02T01:48:12;100159.50;;;16.06;65.32
804;BME280;25687;49.976;8.240;2022-09-02T01:50:41;100158.06;;;16.02;65.62
804;BME280;25687;49.976;8.240;2022-09-02T01:53:07;100156.41;;;16.01;65.79
804;BME280;25687;49.976;8.240;2022-09-02T01:55:33;100148.59;;;16.01;65.88
804;BME280;25687;49.976;8.240;2022-09-02T01:57:59;100150.25;;;16.02;65.88
804;BME280;25687;49.976;8.240;2022-09-02T02:00:25;100145.78;;;15.93;66.24
804;BME280;25687;49.976;8.240;2022-09-02T02:02:50;100148.47;;;15.91;66.82
804;BME280;25687;49.976;8.240;2022-09-02T02:05:16;100150.22;;;15.79;66.95
804;BME280;25687;49.976;8.240;2022-09-02T02:07:42;100145.03;;;15.79;67.23
804;BME280;25687;49.976;8.240;2022-09-02T02:10:09;100148.78;;;15.64;68.26
804;BME280;25687;49.976;8.240;2022-09-02T02:12:37;100150.09;;;15.70;68.85
804;BME280;25687;49.976;8.240;2022-09-02T02:15:08;100147.84;;;15.76;67.94
804;BME280;25687;49.976;8.240;2022-09-02T02:17:34;100151.16;;;15.67;68.20
804;BME280;25687;49.976;8.240;2022-09-02T02:19:59;100154.94;;;15.63;68.55
804;BME280;25687;49.976;8.240;2022-09-02T02:22:25;100158.91;;;15.56;68.71
804;BME280;25687;49.976;8.240;2022-09-02T02:24:51;100152.09;;;15.66;68.53
804;BME280;25687;49.976;8.240;2022-09-02T02:27:17;100151.38;;;15.64;68.41
804;BME280;25687;49.976;8.240;2022-09-02T02:29:42;100151.81;;;15.58;68.41
804;BME280;25687;49.976;8.240;2022-09-02T02:32:08;100156.53;;;15.53;68.86
804;BME280;25687;49.976;8.240;2022-09-02T02:34:33;100146.06;;;15.54;69.16
804;BME280;25687;49.976;8.240;2022-09-02T02:36:59;100142.38;;;15.45;69.13
804;BME280;25687;49.976;8.240;2022-09-02T02:39:24;100149.47;;;15.43;68.99
804;BME280;25687;49.976;8.240;2022-09-02T02:41:50;100147.81;;;15.42;69.49
804;BME280;25687;49.976;8.240;2022-09-02T02:44:15;100155.69;;;15.41;69.16
804;BME280;25687;49.976;8.240;2022-09-02T02:46:41;100140.63;;;15.46;68.56
804;BME280;25687;49.976;8.240;2022-09-02T02:49:07;100146.63;;;15.46;68.75
804;BME280;25687;49.976;8.240;2022-09-02T02:51:33;100138.03;;;15.46;68.91
804;BME280;25687;49.976;8.240;2022-09-02T02:53:59;100140.97;;;15.41;69.01
804;BME280;25687;49.976;8.240;2022-09-02T02:56:26;100145.41;;;15.39;69.08
804;BME280;25687;49.976;8.240;2022-09-02T02:58:51;100151.06;;;15.33;70.07
804;BME280;25687;49.976;8.240;2022-09-02T03:01:16;100144.84;;;15.36;69.84
804;BME280;25687;49.976;8.240;2022-09-02T03:03:42;100134.13;;;15.40;69.37
804;BME280;25687;49.976;8.240;2022-09-02T03:06:08;100146.59;;;15.35;69.54
804;BME280;25687;49.976;8.240;2022-09-02T03:08:34;100140.94;;;15.30;69.87
804;BME280;25687;49.976;8.240;2022-09-02T03:11:02;100138.94;;;15.33;70.28
804;BME280;25687;49.976;8.240;2022-09-02T03:13:32;100144.91;;;15.23;70.49
804;BME280;25687;49.976;8.240;2022-09-02T03:15:57;100142.06;;;15.14;71.48
804;BME280;25687;49.976;8.240;2022-09-02T03:18:23;100142.56;;;15.20;70.93
804;BME280;25687;49.976;8.240;2022-09-02T03:20:49;100144.19;;;15.21;70.90
804;BME280;25687;49.976;8.240;2022-09-02T03:23:14;100147.03;;;15.17;70.67
804;BME280;25687;49.976;8.240;2022-09-02T03:25:42;100143.38;;;15.20;70.74
804;BME280;25687;49.976;8.240;2022-09-02T03:28:08;100138.19;;;15.20;70.69
804;BME280;25687;49.976;8.240;2022-09-02T03:30:33;100138.75;;;15.12;71.15
804;BME280;25687;49.976;8.240;2022-09-02T03:33:00;100132.25;;;15.07;71.85
804;BME280;25687;49.976;8.240;2022-09-02T03:35:26;100141.91;;;15.05;71.84
804;BME280;25687;49.976;8.240;2022-09-02T03:37:52;100132.38;;;15.05;72.25
804;BME280;25687;49.976;8.240;2022-09-02T03:40:21;100136.50;;;15.08;72.31
804;BME280;25687;49.976;8.240;2022-09-02T03:42:47;100136.47;;;14.96;72.62
804;BME280;25687;49.976;8.240;2022-09-02T03:45:12;100136.34;;;14.98;73.32
804;BME280;25687;49.976;8.240;2022-09-02T03:47:40;100138.16;;;14.84;74.26
804;BME280;25687;49.976;8.240;2022-09-02T03:50:11;100135.03;;;14.92;73.69
804;BME280;25687;49.976;8.240;2022-09-02T03:52:36;100135.25;;;14.89;73.42
804;BME280;25687;49.976;8.240;2022-09-02T03:55:03;100128.75;;;14.83;74.14
804;BME280;25687;49.976;8.240;2022-09-02T03:57:29;100129.94;;;14.91;73.78
804;BME280;25687;49.976;8.240;2022-09-02T03:59:55;100130.50;;;14.83;74.72
804;BME280;25687;49.976;8.240;2022-09-02T04:02:20;100134.75;;;14.84;73.71
804;BME280;25687;49.976;8.240;2022-09-02T04:04:45;100131.22;;;14.85;73.54
804;BME280;25687;49.976;8.240;2022-09-02T04:07:11;100131.94;;;14.87;73.42
804;BME280;25687;49.976;8.240;2022-09-02T04:09:36;100126.09;;;14.96;73.12
804;BME280;25687;49.976;8.240;2022-09-02T04:12:03;100124.69;;;14.92;73.31
804;BME280;25687;49.976;8.240;2022-09-02T04:14:28;100127.59;;;14.88;73.56
804;BME280;25687;49.976;8.240;2022-09-02T04:16:53;100133.50;;;14.90;73.76
804;BME280;25687;49.976;8.240;2022-09-02T04:19:18;100127.19;;;14.81;74.09
804;BME280;25687;49.976;8.240;2022-09-02T04:21:44;100132.66;;;14.89;73.17
804;BME280;25687;49.976;8.240;2022-09-02T04:24:10;100130.91;;;14.90;73.40
804;BME280;25687;49.976;8.240;2022-09-02T04:26:36;100121.97;;;14.94;73.16
804;BME280;25687;49.976;8.240;2022-09-02T04:29:03;100126.22;;;14.95;72.87
804;BME280;25687;49.976;8.240;2022-09-02T04:31:28;100126.75;;;14.87;73.33
804;BME280;25687;49.976;8.240;2022-09-02T04:33:56;100132.88;;;14.86;73.17
804;BME280;25687;49.976;8.240;2022-09-02T04:36:22;100129.94;;;14.91;73.30
804;BME280;25687;49.976;8.240;2022-09-02T04:38:48;100118.81;;;15.01;72.73
804;BME280;25687;49.976;8.240;2022-09-02T04:41:17;100127.44;;;15.02;73.08
804;BME280;25687;49.976;8.240;2022-09-02T04:43:43;100135.06;;;15.04;72.46
804;BME280;25687;49.976;8.240;2022-09-02T04:46:11;100128.00;;;15.06;71.90
804;BME280;25687;49.976;8.240;2022-09-02T04:48:38;100130.84;;;15.03;72.36
804;BME280;25687;49.976;8.240;2022-09-02T04:51:06;100127.78;;;15.09;72.64
804;BME280;25687;49.976;8.240;2022-09-02T04:53:32;100131.19;;;15.09;72.42
804;BME280;25687;49.976;8.240;2022-09-02T04:55:57;100133.56;;;15.12;72.18
804;BME280;25687;49.976;8.240;2022-09-02T04:58:22;100131.31;;;15.08;72.34
804;BME280;25687;49.976;8.240;2022-09-02T05:00:48;100133.97;;;14.95;72.27
804;BME280;25687;49.976;8.240;2022-09-02T05:03:13;100134.59;;;14.98;73.40
804;BME280;25687;49.976;8.240;2022-09-02T05:05:39;100129.78;;;15.05;72.43
804;BME280;25687;49.976;8.240;2022-09-02T05:08:05;100136.22;;;14.99;72.54
804;BME280;25687;49.976;8.240;2022-09-02T05:10:31;100134.22;;;15.03;72.77
804;BME280;25687;49.976;8.240;2022-09-02T05:12:57;100138.88;;;15.11;72.17
804;BME280;25687;49.976;8.240;2022-09-02T05:15:23;100141.94;;;15.16;72.51
804;BME280;25687;49.976;8.240;2022-09-02T05:17:49;100140.41;;;15.13;72.10
804;BME280;25687;49.976;8.240;2022-09-02T05:20:14;100128.34;;;15.37;75.38
804;BME280;25687;49.976;8.240;2022-09-02T05:22:39;100137.13;;;15.58;71.67
804;BME280;25687;49.976;8.240;2022-09-02T05:25:06;100130.91;;;15.84;70.36
804;BME280;25687;49.976;8.240;2022-09-02T05:27:34;100125.84;;;15.82;69.54
804;BME280;25687;49.976;8.240;2022-09-02T05:30:00;100140.94;;;15.88;70.17
804;BME280;25687;49.976;8.240;2022-09-02T05:32:25;100131.75;;;15.95;68.41
804;BME280;25687;49.976;8.240;2022-09-02T05:34:52;100137.88;;;15.94;68.33
804;BME280;25687;49.976;8.240;2022-09-02T05:37:18;100140.34;;;16.07;68.01
804;BME280;25687;49.976;8.240;2022-09-02T05:39:43;100143.91;;;16.18;67.10
804;BME280;25687;49.976;8.240;2022-09-02T05:42:09;100147.44;;;16.28;66.55
804;BME280;25687;49.976;8.240;2022-09-02T05:44:35;100138.84;;;16.27;66.16
804;BME280;25687;49.976;8.240;2022-09-02T05:47:01;100137.97;;;16.38;66.04
804;BME280;25687;49.976;8.240;2022-09-02T05:49:26;100138.94;;;16.37;65.40
804;BME280;25687;49.976;8.240;2022-09-02T05:51:54;100139.28;;;16.44;65.05
804;BME280;25687;49.976;8.240;2022-09-02T05:54:31;100137.94;;;16.61;64.17
804;BME280;25687;49.976;8.240;2022-09-02T05:57:02;100140.31;;;16.53;64.39
804;BME280;25687;49.976;8.240;2022-09-02T05:59:30;100143.84;;;16.52;65.60
804;BME280;25687;49.976;8.240;2022-09-02T06:01:56;100136.41;;;16.58;64.56
804;BME280;25687;49.976;8.240;2022-09-02T06:04:23;100137.66;;;16.75;63.58
804;BME280;25687;49.976;8.240;2022-09-02T06:06:50;100133.25;;;16.99;62.90
804;BME280;25687;49.976;8.240;2022-09-02T06:09:18;100131.66;;;17.07;62.46
804;BME280;25687;49.976;8.240;2022-09-02T06:11:44;100127.56;;;17.26;62.08
804;BME280;25687;49.976;8.240;2022-09-02T06:14:11;100129.84;;;17.40;60.68
804;BME280;25687;49.976;8.240;2022-09-02T06:16:38;100135.28;;;17.37;60.87
804;BME280;25687;49.976;8.240;2022-09-02T06:19:04;100133.72;;;17.25;61.29
804;BME280;25687;49.976;8.240;2022-09-02T06:21:30;100132.00;;;17.56;60.38
804;BME280;25687;49.976;8.240;2022-09-02T06:23:56;100131.56;;;17.72;59.01
804;BME280;25687;49.976;8.240;2022-09-02T06:26:21;100132.69;;;17.89;57.89
804;BME280;25687;49.976;8.240;2022-09-02T06:28:47;100137.41;;;17.96;57.43
804;BME280;25687;49.976;8.240;2022-09-02T06:31:15;100140.38;;;18.12;57.38
804;BME280;25687;49.976;8.240;2022-09-02T06:33:44;100134.47;;;18.10;55.85
804;BME280;25687;49.976;8.240;2022-09-02T06:36:15;100136.59;;;18.36;56.20
804;BME280;25687;49.976;8.240;2022-09-02T06:38:43;100132.03;;;18.28;55.74
804;BME280;25687;49.976;8.240;2022-09-02T06:41:11;100129.25;;;18.10;55.87
804;BME280;25687;49.976;8.240;2022-09-02T06:43:37;100132.31;;;18.25;55.60
804;BME280;25687;49.976;8.240;2022-09-02T06:46:03;100134.94;;;18.35;55.43
804;BME280;25687;49.976;8.240;2022-09-02T06:48:28;100136.31;;;18.39;55.01
804;BME280;25687;49.976;8.240;2022-09-02T06:50:54;100134.97;;;18.45;54.33
804;BME280;25687;49.976;8.240;2022-09-02T06:53:20;100131.13;;;18.49;53.93
804;BME280;25687;49.976;8.240;2022-09-02T06:55:45;100140.50;;;18.71;53.73
804;BME280;25687;49.976;8.240;2022-09-02T06:58:11;100139.00;;;18.78;52.35
804;BME280;25687;49.976;8.240;2022-09-02T07:00:39;100130.94;;;18.91;51.79
804;BME280;25687;49.976;8.240;2022-09-02T07:03:06;100132.13;;;19.36;51.23
804;BME280;25687;49.976;8.240;2022-09-02T07:06:03;100129.38;;;19.95;49.71
804;BME280;25687;49.976;8.240;2022-09-02T07:08:33;100124.22;;;21.39;44.75
804;BME280;25687;49.976;8.240;2022-09-02T07:10:59;100129.88;;;22.14;41.94
804;BME280;25687;49.976;8.240;2022-09-02T07:13:24;100133.22;;;21.89;41.61
804;BME280;25687;49.976;8.240;2022-09-02T07:15:49;100134.25;;;22.39;41.07
804;BME280;25687;49.976;8.240;2022-09-02T07:18:15;100124.03;;;22.28;41.27
804;BME280;25687;49.976;8.240;2022-09-02T07:20:43;100129.03;;;22.56;39.54
804;BME280;25687;49.976;8.240;2022-09-02T07:23:09;100126.38;;;23.63;38.33
804;BME280;25687;49.976;8.240;2022-09-02T07:25:37;100130.09;;;23.77;37.38
804;BME280;25687;49.976;8.240;2022-09-02T07:28:03;100134.50;;;23.29;37.96
804;BME280;25687;49.976;8.240;2022-09-02T07:30:29;100135.78;;;23.49;37.39
804;BME280;25687;49.976;8.240;2022-09-02T07:32:55;100145.31;;;23.01;38.14
804;BME280;25687;49.976;8.240;2022-09-02T07:35:21;100140.84;;;22.68;39.32
804;BME280;25687;49.976;8.240;2022-09-02T07:37:46;100136.66;;;24.29;36.17
804;BME280;25687;49.976;8.240;2022-09-02T07:40:13;100140.22;;;22.99;38.17
804;BME280;25687;49.976;8.240;2022-09-02T07:42:39;100137.59;;;22.66;39.57
804;BME280;25687;49.976;8.240;2022-09-02T07:45:04;100132.53;;;23.31;38.40
804;BME280;25687;49.976;8.240;2022-09-02T07:47:30;100138.19;;;23.67;37.15
804;BME280;25687;49.976;8.240;2022-09-02T07:49:56;100137.38;;;23.59;36.91
804;BME280;25687;49.976;8.240;2022-09-02T07:52:21;100127.94;;;23.97;36.69
804;BME280;25687;49.976;8.240;2022-09-02T07:54:46;100134.66;;;24.86;34.59
804;BME280;25687;49.976;8.240;2022-09-02T07:57:11;100130.25;;;24.55;34.90
804;BME280;25687;49.976;8.240;2022-09-02T07:59:37;100131.56;;;23.80;36.21
804;BME280;25687;49.976;8.240;2022-09-02T08:02:02;100129.97;;;24.18;36.29
804;BME280;25687;49.976;8.240;2022-09-02T08:04:28;100124.31;;;23.90;36.55
804;BME280;25687;49.976;8.240;2022-09-02T08:06:54;100132.00;;;23.44;37.63
804;BME280;25687;49.976;8.240;2022-09-02T08:09:20;100121.38;;;23.37;37.76
804;BME280;25687;49.976;8.240;2022-09-02T08:11:48;100116.34;;;24.15;36.22
804;BME280;25687;49.976;8.240;2022-09-02T08:14:22;100127.75;;;24.85;34.60
804;BME280;25687;49.976;8.240;2022-09-02T08:16:50;100127.16;;;24.98;34.98
804;BME280;25687;49.976;8.240;2022-09-02T08:19:15;100131.09;;;25.70;34.04
804;BME280;25687;49.976;8.240;2022-09-02T08:21:41;100134.00;;;25.75;33.07
804;BME280;25687;49.976;8.240;2022-09-02T08:24:06;100127.25;;;26.39;32.99
804;BME280;25687;49.976;8.240;2022-09-02T08:26:31;100123.50;;;27.42;31.53
804;BME280;25687;49.976;8.240;2022-09-02T08:29:01;100133.88;;;28.54;29.55
804;BME280;25687;49.976;8.240;2022-09-02T08:31:27;100132.09;;;26.94;31.08
804;BME280;25687;49.976;8.240;2022-09-02T08:33:52;100134.16;;;28.86;28.41
804;BME280;25687;49.976;8.240;2022-09-02T08:36:17;100132.34;;;27.06;30.70
804;BME280;25687;49.976;8.240;2022-09-02T08:38:43;100118.50;;;28.98;28.55
804;BME280;25687;49.976;8.240;2022-09-02T08:41:24;100126.19;;;29.20;28.40
804;BME280;25687;49.976;8.240;2022-09-02T08:43:52;100126.97;;;28.46;28.97
804;BME280;25687;49.976;8.240;2022-09-02T08:46:20;100123.56;;;26.99;30.95
804;BME280;25687;49.976;8.240;2022-09-02T08:48:57;100127.50;;;27.38;30.74
804;BME280;25687;49.976;8.240;2022-09-02T08:51:44;100119.00;;;28.20;29.23
804;BME280;25687;49.976;8.240;2022-09-02T08:54:34;100129.16;;;28.16;29.40
804;BME280;25687;49.976;8.240;2022-09-02T08:57:01;100120.56;;;26.80;31.01
804;BME280;25687;49.976;8.240;2022-09-02T08:59:28;100117.59;;;27.40;30.51
804;BME280;25687;49.976;8.240;2022-09-02T09:07:37;100121.22;;;26.82;31.40
804;BME280;25687;49.976;8.240;2022-09-02T09:10:12;100103.06;;;27.58;29.45
804;BME280;25687;49.976;8.240;2022-09-02T09:12:55;100108.34;;;27.29;29.84
804;BME280;25687;49.976;8.240;2022-09-02T09:18:07;100110.81;;;27.31;30.32
804;BME280;25687;49.976;8.240;2022-09-02T09:20:39;100102.19;;;28.94;27.72
804;BME280;25687;49.976;8.240;2022-09-02T09:23:26;100099.78;;;29.78;26.47
804;BME280;25687;49.976;8.240;2022-09-02T09:25:56;100099.94;;;28.91;27.10
804;BME280;25687;49.976;8.240;2022-09-02T09:28:23;100103.56;;;28.37;27.85
804;BME280;25687;49.976;8.240;2022-09-02T09:30:49;100091.06;;;27.55;28.99
804;BME280;25687;49.976;8.240;2022-09-02T11:11:45;99998.03;;;24.00;29.60
804;BME280;25687;49.976;8.240;2022-09-02T11:14:24;99994.69;;;23.83;29.76
804;BME280;25687;49.976;8.240;2022-09-02T11:17:05;99980.34;;;23.62;29.45
804;BME280;25687;49.976;8.240;2022-09-02T11:19:38;99984.44;;;23.57;30.54
804;BME280;25687;49.976;8.240;2022-09-02T11:24:56;99971.03;;;23.51;29.81
804;BME280;25687;49.976;8.240;2022-09-02T11:27:37;99968.66;;;23.65;30.01
804;BME280;25687;49.976;8.240;2022-09-02T11:30:11;99962.63;;;23.88;31.17
804;BME280;25687;49.976;8.240;2022-09-02T11:35:25;99968.34;;;23.68;30.75
804;BME280;25687;49.976;8.240;2022-09-02T11:37:57;99962.25;;;23.67;30.44
804;BME280;25687;49.976;8.240;2022-09-02T11:43:06;99961.31;;;23.60;30.71
804;BME280;25687;49.976;8.240;2022-09-02T11:53:31;99951.34;;;23.79;31.53
804;BME280;25687;49.976;8.240;2022-09-02T12:01:22;99955.28;;;23.51;30.62
804;BME280;25687;49.976;8.240;2022-09-02T12:06:23;99939.88;;;23.48;30.70
804;BME280;25687;49.976;8.240;2022-09-02T12:08:55;99935.81;;;23.46;31.20
804;BME280;25687;49.976;8.240;2022-09-02T12:16:58;99944.09;;;23.58;30.49
804;BME280;25687;49.976;8.240;2022-09-02T12:19:28;99927.31;;;23.67;31.15
804;BME280;25687;49.976;8.240;2022-09-02T12:24:56;99942.56;;;23.72;31.22
804;BME280;25687;49.976;8.240;2022-09-02T12:27:27;99942.78;;;23.62;31.05
804;BME280;25687;49.976;8.240;2022-09-02T12:29:53;99941.84;;;23.46;31.02
804;BME280;25687;49.976;8.240;2022-09-02T12:33:01;99924.69;;;23.67;31.01
804;BME280;25687;49.976;8.240;2022-09-02T12:35:48;99929.50;;;23.87;30.99
804;BME280;25687;49.976;8.240;2022-09-02T12:40:54;99916.22;;;23.25;31.27
804;BME280;25687;49.976;8.240;2022-09-02T12:46:02;99914.69;;;23.62;30.66
804;BME280;25687;49.976;8.240;2022-09-02T12:48:40;99909.31;;;23.79;30.47
804;BME280;25687;49.976;8.240;2022-09-02T12:51:08;99908.47;;;23.63;29.60
804;BME280;25687;49.976;8.240;2022-09-02T12:58:54;99896.84;;;23.81;30.03
804;BME280;25687;49.976;8.240;2022-09-02T13:01:24;99901.69;;;23.69;29.62
804;BME280;25687;49.976;8.240;2022-09-02T13:09:40;99881.63;;;23.76;29.64
804;BME280;25687;49.976;8.240;2022-09-02T13:12:23;99883.81;;;23.96;29.20
804;BME280;25687;49.976;8.240;2022-09-02T13:15:02;99881.03;;;24.12;29.35
804;BME280;25687;49.976;8.240;2022-09-02T13:26:09;99871.03;;;23.93;28.61
804;BME280;25687;49.976;8.240;2022-09-02T13:31:19;99863.56;;;24.34;28.34
804;BME280;25687;49.976;8.240;2022-09-02T13:34:31;99860.47;;;24.16;28.12
804;BME280;25687;49.976;8.240;2022-09-02T13:36:41;99862.78;;;23.96;28.81
804;BME280;25687;49.976;8.240;2022-09-02T13:41:39;99850.50;;;24.11;28.22
804;BME280;25687;49.976;8.240;2022-09-02T13:44:07;99841.34;;;24.22;28.27
804;BME280;25687;49.976;8.240;2022-09-02T13:46:40;99841.34;;;24.22;27.63
804;BME280;25687;49.976;8.240;2022-09-02T13:49:13;99831.22;;;24.19;27.73
804;BME280;25687;49.976;8.240;2022-09-02T13:51:42;99833.34;;;24.39;28.54
804;BME280;25687;49.976;8.240;2022-09-02T13:54:10;99830.69;;;24.39;27.26
804;BME280;25687;49.976;8.240;2022-09-02T13:56:35;99832.41;;;24.46;27.62
804;BME280;25687;49.976;8.240;2022-09-02T13:59:01;99833.50;;;24.52;27.71
804;BME280;25687;49.976;8.240;2022-09-02T14:03:59;99820.47;;;24.74;27.94
804;BME280;25687;49.976;8.240;2022-09-02T14:06:32;99816.44;;;24.63;26.73
804;BME280;25687;49.976;8.240;2022-09-02T14:09:02;99815.44;;;24.64;27.80
804;BME280;25687;49.976;8.240;2022-09-02T14:11:35;99822.25;;;24.43;27.19
804;BME280;25687;49.976;8.240;2022-09-02T14:14:02;99817.56;;;24.24;27.60
804;BME280;25687;49.976;8.240;2022-09-02T14:16:33;99807.13;;;24.15;27.17
804;BME280;25687;49.976;8.240;2022-09-02T14:19:10;99808.19;;;24.21;27.26
804;BME280;25687;49.976;8.240;2022-09-02T14:21:45;99797.78;;;24.28;27.66
804;BME280;25687;49.976;8.240;2022-09-02T14:24:12;99801.22;;;24.28;27.01
804;BME280;25687;49.976;8.240;2022-09-02T14:26:44;99785.09;;;24.61;28.20
804;BME280;25687;49.976;8.240;2022-09-02T14:29:13;99790.81;;;24.65;28.66
804;BME280;25687;49.976;8.240;2022-09-02T14:31:39;99782.75;;;24.67;27.42
804;BME280;25687;49.976;8.240;2022-09-02T14:34:31;99780.44;;;24.48;28.01
804;BME280;25687;49.976;8.240;2022-09-02T14:36:57;99771.56;;;24.64;27.99
804;BME280;25687;49.976;8.240;2022-09-02T14:39:23;99767.66;;;24.60;27.54
804;BME280;25687;49.976;8.240;2022-09-02T14:41:53;99765.69;;;24.62;27.37
804;BME280;25687;49.976;8.240;2022-09-02T14:44:25;99770.84;;;24.41;27.49
804;BME280;25687;49.976;8.240;2022-09-02T14:46:58;99757.19;;;24.45;27.96
804;BME280;25687;49.976;8.240;2022-09-02T14:49:30;99756.81;;;24.33;28.30
804;BME280;25687;49.976;8.240;2022-09-02T14:52:02;99760.59;;;24.46;28.25
804;BME280;25687;49.976;8.240;2022-09-02T14:54:45;99757.09;;;24.39;28.68
804;BME280;25687;49.976;8.240;2022-09-02T14:57:28;99752.00;;;24.37;28.42
804;BME280;25687;49.976;8.240;2022-09-02T14:59:56;99753.38;;;24.33;29.07
804;BME280;25687;49.976;8.240;2022-09-02T15:04:50;99750.72;;;24.63;28.70
804;BME280;25687;49.976;8.240;2022-09-02T15:07:15;99758.69;;;24.55;28.08
804;BME280;25687;49.976;8.240;2022-09-02T15:09:41;99749.28;;;24.45;28.67
804;BME280;25687;49.976;8.240;2022-09-02T15:12:09;99740.31;;;24.70;28.63
804;BME280;25687;49.976;8.240;2022-09-02T15:14:34;99735.22;;;24.68;27.92
804;BME280;25687;49.976;8.240;2022-09-02T15:17:00;99730.22;;;24.58;27.78
804;BME280;25687;49.976;8.240;2022-09-02T15:19:26;99728.97;;;24.54;27.87
804;BME280;25687;49.976;8.240;2022-09-02T15:21:51;99731.41;;;24.71;28.09
804;BME280;25687;49.976;8.240;2022-09-02T15:24:17;99737.03;;;24.53;28.15
804;BME280;25687;49.976;8.240;2022-09-02T15:26:42;99725.44;;;24.47;27.77
804;BME280;25687;49.976;8.240;2022-09-02T15:29:07;99727.31;;;24.68;27.67
804;BME280;25687;49.976;8.240;2022-09-02T15:31:33;99720.34;;;24.60;27.08
804;BME280;25687;49.976;8.240;2022-09-02T15:33:59;99724.91;;;24.52;27.01
804;BME280;25687;49.976;8.240;2022-09-02T15:36:25;99738.25;;;24.35;27.04
804;BME280;25687;49.976;8.240;2022-09-02T15:38:51;99734.91;;;24.26;27.09
804;BME280;25687;49.976;8.240;2022-09-02T15:41:18;99742.13;;;24.39;27.26
804;BME280;25687;49.976;8.240;2022-09-02T15:43:44;99732.25;;;24.41;26.98
804;BME280;25687;49.976;8.240;2022-09-02T15:46:22;99733.00;;;24.20;27.31
804;BME280;25687;49.976;8.240;2022-09-02T15:48:48;99720.84;;;24.19;27.40
804;BME280;25687;49.976;8.240;2022-09-02T15:51:15;99722.38;;;24.28;27.30
804;BME280;25687;49.976;8.240;2022-09-02T15:53:41;99727.72;;;24.50;28.11
804;BME280;25687;49.976;8.240;2022-09-02T15:56:21;99722.97;;;24.60;27.61
804;BME280;25687;49.976;8.240;2022-09-02T15:58:53;99728.59;;;24.72;27.62
804;BME280;25687;49.976;8.240;2022-09-02T16:01:19;99724.94;;;24.73;27.55
804;BME280;25687;49.976;8.240;2022-09-02T16:03:45;99727.97;;;24.70;27.44
804;BME280;25687;49.976;8.240;2022-09-02T16:06:10;99726.63;;;24.44;27.49
804;BME280;25687;49.976;8.240;2022-09-02T16:08:36;99715.50;;;24.42;27.54
804;BME280;25687;49.976;8.240;2022-09-02T16:11:03;99714.72;;;24.48;27.70
804;BME280;25687;49.976;8.240;2022-09-02T16:13:29;99713.19;;;24.54;27.51
804;BME280;25687;49.976;8.240;2022-09-02T16:16:09;99700.97;;;24.46;27.37